Time;durP1;ratioP1;P1;durP2;ratioP2;P2;SDS_P1;SDS_P2;PMS_P1;PMS_P2;Temp;Humidity;BMP_temperature;BMP_pressure;BME280_temperature;BME280_humidity;BME280_pressure;Samples;Min_cycle;Max_cycle;Signal;HPM_P1;HPM_P2
2022/08/26 00:00:08;;;;;;;23.00;16.63;;;;;;;;;;5072865;28;20029;-65
2022/08/26 00:02:34;;;;;;;22.77;16.65;;;;;;;;;;5074450;28;20024;-65
2022/08/26 00:05:00;;;;;;;22.83;17.48;;;;;;;;;;5074815;28;20078;-65
2022/08/26 00:07:26;;;;;;;21.20;16.42;;;;;;;;;;5073747;28;20024;-64
2022/08/26 00:09:52;;;;;;;19.70;15.98;;;;;;;;;;5072865;28;20024;-65
2022/08/26 00:12:18;;;;;;;22.17;17.08;;;;;;;;;;5072834;28;20036;-64
2022/08/26 00:14:44;;;;;;;21.52;16.60;;;;;;;;;;5072886;28;20025;-64
2022/08/26 00:17:10;;;;;;;24.40;17.05;;;;;;;;;;5072380;28;20383;-66
2022/08/26 00:19:36;;;;;;;21.08;16.98;;;;;;;;;;5072496;28;20039;-65
2022/08/26 00:22:02;;;;;;;22.33;17.17;;;;;;;;;;5072579;28;20040;-65
2022/08/26 00:24:28;;;;;;;23.20;17.08;;;;;;;;;;5071727;28;20024;-65
2022/08/26 00:26:54;;;;;;;22.15;16.75;;;;;;;;;;5072706;28;20116;-65
2022/08/26 00:29:21;;;;;;;24.50;17.40;;;;;;;;;;5072517;28;20025;-65
2022/08/26 00:31:46;;;;;;;20.58;16.30;;;;;;;;;;5072706;28;20448;-65
2022/08/26 00:34:14;;;;;;;23.10;16.58;;;;;;;;;;5072664;28;20047;-65
2022/08/26 00:36:40;;;;;;;21.63;17.13;;;;;;;;;;5072449;28;20055;-65
2022/08/26 00:39:06;;;;;;;23.83;17.02;;;;;;;;;;5072476;28;20032;-68
2022/08/26 00:41:33;;;;;;;23.50;17.23;;;;;;;;;;5072469;28;20024;-65
2022/08/26 00:43:59;;;;;;;21.95;17.08;;;;;;;;;;5072336;28;20055;-65
2022/08/26 00:46:27;;;;;;;22.60;16.80;;;;;;;;;;5071989;28;20021;-65
2022/08/26 00:48:58;;;;;;;21.45;17.27;;;;;;;;;;5071555;28;20115;-65
2022/08/26 00:51:25;;;;;;;29.95;18.75;;;;;;;;;;5071780;28;20107;-65
2022/08/26 00:53:53;;;;;;;24.00;17.00;;;;;;;;;;5072438;28;20017;-65
2022/08/26 00:56:21;;;;;;;25.08;17.83;;;;;;;;;;5072116;28;20029;-64
2022/08/26 00:58:48;;;;;;;22.70;17.20;;;;;;;;;;5071739;28;20039;-65
2022/08/26 01:01:14;;;;;;;23.52;17.33;;;;;;;;;;5072228;28;20024;-65
2022/08/26 01:03:41;;;;;;;21.70;17.58;;;;;;;;;;5071970;28;20365;-65
2022/08/26 01:06:08;;;;;;;22.83;17.05;;;;;;;;;;5072192;28;20116;-65
2022/08/26 01:08:34;;;;;;;24.60;17.83;;;;;;;;;;5071806;28;20048;-65
2022/08/26 01:11:01;;;;;;;23.58;17.65;;;;;;;;;;5071975;28;20060;-65
2022/08/26 01:13:28;;;;;;;24.15;17.52;;;;;;;;;;5071989;28;20023;-65
2022/08/26 01:15:55;;;;;;;26.13;16.95;;;;;;;;;;5072056;28;20017;-65
2022/08/26 01:18:22;;;;;;;22.55;16.88;;;;;;;;;;5071613;28;20078;-65
2022/08/26 01:20:50;;;;;;;22.73;16.58;;;;;;;;;;5072038;28;20029;-65
2022/08/26 01:23:17;;;;;;;23.65;16.50;;;;;;;;;;5071753;28;20025;-65
2022/08/26 01:25:46;;;;;;;21.83;16.27;;;;;;;;;;5072072;28;20036;-65
2022/08/26 01:28:15;;;;;;;23.92;16.98;;;;;;;;;;5071506;28;20143;-65
2022/08/26 01:30:41;;;;;;;23.67;17.15;;;;;;;;;;5071880;28;20032;-65
2022/08/26 01:33:10;;;;;;;22.80;16.27;;;;;;;;;;5071843;28;20062;-65
2022/08/26 01:35:36;;;;;;;23.02;16.98;;;;;;;;;;5073458;28;20033;-64
2022/08/26 01:38:03;;;;;;;25.63;17.35;;;;;;;;;;5075272;28;20159;-65
2022/08/26 01:40:31;;;;;;;22.35;16.95;;;;;;;;;;5075360;28;20108;-65
2022/08/26 01:42:57;;;;;;;22.15;18.02;;;;;;;;;;5075071;28;20096;-65
2022/08/26 01:45:25;;;;;;;23.13;17.35;;;;;;;;;;5075401;28;20020;-65
2022/08/26 01:47:52;;;;;;;25.40;19.75;;;;;;;;;;5074928;28;20159;-65
2022/08/26 01:50:21;;;;;;;25.83;17.85;;;;;;;;;;5075333;28;20051;-65
2022/08/26 01:52:48;;;;;;;26.38;18.38;;;;;;;;;;5075339;28;20031;-65
2022/08/26 01:55:14;;;;;;;24.23;18.40;;;;;;;;;;5075292;28;20024;-65
2022/08/26 01:57:42;;;;;;;26.17;18.70;;;;;;;;;;5073602;28;20032;-65
2022/08/26 02:00:12;;;;;;;25.83;19.23;;;;;;;;;;5073997;28;20063;-65
2022/08/26 02:02:38;;;;;;;22.23;17.17;;;;;;;;;;5075279;28;20071;-65
2022/08/26 02:05:06;;;;;;;26.48;18.50;;;;;;;;;;5075052;28;20396;-66
2022/08/26 02:07:32;;;;;;;23.92;17.15;;;;;;;;;;5074697;28;20092;-65
2022/08/26 02:09:58;;;;;;;25.50;17.75;;;;;;;;;;5075124;28;20024;-65
2022/08/26 02:12:25;;;;;;;27.35;18.02;;;;;;;;;;5075626;28;20704;-64
2022/08/26 02:14:53;;;;;;;25.08;18.88;;;;;;;;;;5075382;28;20464;-65
2022/08/26 02:17:21;;;;;;;25.98;17.52;;;;;;;;;;5073390;28;20461;-65
2022/08/26 02:19:48;;;;;;;26.23;19.27;;;;;;;;;;5073564;28;20036;-65
2022/08/26 02:22:16;;;;;;;24.23;18.83;;;;;;;;;;5074585;28;20074;-65
2022/08/26 02:24:50;;;;;;;24.08;17.75;;;;;;;;;;5073515;28;20031;-65
2022/08/26 02:27:18;;;;;;;22.90;17.33;;;;;;;;;;5074286;28;20550;-66
2022/08/26 02:29:46;;;;;;;25.98;17.77;;;;;;;;;;5074547;28;20488;-65
2022/08/26 02:32:12;;;;;;;24.63;17.67;;;;;;;;;;5074750;28;20052;-65
2022/08/26 02:34:39;;;;;;;25.30;17.80;;;;;;;;;;5074435;28;20501;-65
2022/08/26 02:37:06;;;;;;;25.38;17.17;;;;;;;;;;5073895;28;20032;-65
2022/08/26 02:39:33;;;;;;;22.05;17.38;;;;;;;;;;5073851;28;20028;-65
2022/08/26 02:42:00;;;;;;;24.35;18.75;;;;;;;;;;5074264;28;20039;-65
2022/08/26 02:44:26;;;;;;;22.38;17.83;;;;;;;;;;5073136;28;20567;-65
2022/08/26 02:46:53;;;;;;;28.13;18.98;;;;;;;;;;5073677;28;20024;-65
2022/08/26 02:49:19;;;;;;;23.83;18.67;;;;;;;;;;5072845;28;20032;-65
2022/08/26 02:51:45;;;;;;;25.35;18.77;;;;;;;;;;5074831;28;20021;-65
2022/08/26 02:54:12;;;;;;;25.90;18.45;;;;;;;;;;5083198;28;20315;-64
2022/08/26 02:56:38;;;;;;;25.33;18.92;;;;;;;;;;5082762;28;20050;-65
2022/08/26 02:59:05;;;;;;;24.17;17.85;;;;;;;;;;5079133;28;20032;-65
2022/08/26 03:01:32;;;;;;;24.40;18.05;;;;;;;;;;5074275;28;20024;-65
2022/08/26 03:03:59;;;;;;;23.55;18.75;;;;;;;;;;5074057;28;20491;-65
2022/08/26 03:06:25;;;;;;;31.98;20.02;;;;;;;;;;5073920;28;20027;-65
2022/08/26 03:08:52;;;;;;;24.67;18.70;;;;;;;;;;5073330;28;20020;-65
2022/08/26 03:11:18;;;;;;;27.02;19.60;;;;;;;;;;5074077;28;20035;-64
2022/08/26 03:13:45;;;;;;;25.45;19.77;;;;;;;;;;5073968;28;20034;-65
2022/08/26 03:16:12;;;;;;;27.17;19.90;;;;;;;;;;5073669;28;20569;-65
2022/08/26 03:18:38;;;;;;;26.13;19.75;;;;;;;;;;5073240;28;20028;-64
2022/08/26 03:21:14;;;;;;;28.38;22.35;;;;;;;;;;5073364;28;20017;-65
2022/08/26 03:23:41;;;;;;;27.15;21.58;;;;;;;;;;5073320;28;20095;-65
2022/08/26 03:26:07;;;;;;;27.27;22.73;;;;;;;;;;5073710;28;20029;-64
2022/08/26 03:28:33;;;;;;;26.67;21.88;;;;;;;;;;5072571;28;20435;-64
2022/08/26 03:30:59;;;;;;;27.80;23.45;;;;;;;;;;5073197;28;20206;-64
2022/08/26 03:33:26;;;;;;;31.13;22.88;;;;;;;;;;5073478;28;20063;-64
2022/08/26 03:35:52;;;;;;;28.80;22.33;;;;;;;;;;5073326;28;20108;-64
2022/08/26 03:38:19;;;;;;;30.77;22.75;;;;;;;;;;5072941;28;20036;-65
2022/08/26 03:40:45;;;;;;;31.20;22.67;;;;;;;;;;5072938;28;20499;-64
2022/08/26 03:43:12;;;;;;;28.63;23.50;;;;;;;;;;5073449;28;20032;-64
2022/08/26 03:45:39;;;;;;;28.95;22.80;;;;;;;;;;5073367;28;20024;-64
2022/08/26 03:48:06;;;;;;;27.02;23.33;;;;;;;;;;5073877;28;20086;-65
2022/08/26 03:50:32;;;;;;;34.78;24.85;;;;;;;;;;5073108;28;20495;-65
2022/08/26 03:52:58;;;;;;;31.05;23.83;;;;;;;;;;5072043;28;20081;-64
2022/08/26 03:55:26;;;;;;;29.80;24.17;;;;;;;;;;5073150;28;20410;-64
2022/08/26 03:57:52;;;;;;;29.23;25.20;;;;;;;;;;5072306;28;20094;-64
2022/08/26 04:00:18;;;;;;;31.08;24.65;;;;;;;;;;5073019;28;20032;-64
2022/08/26 04:02:47;;;;;;;31.95;26.40;;;;;;;;;;5073021;28;20020;-64
2022/08/26 04:05:13;;;;;;;31.65;26.88;;;;;;;;;;5071393;28;20025;-65
2022/08/26 04:07:40;;;;;;;34.28;27.63;;;;;;;;;;5072438;28;20021;-64
2022/08/26 04:10:06;;;;;;;32.25;27.92;;;;;;;;;;5072726;28;20499;-64
2022/08/26 04:12:33;;;;;;;37.03;29.55;;;;;;;;;;5072768;28;20443;-65
2022/08/26 04:14:58;;;;;;;35.70;30.35;;;;;;;;;;5072158;28;20078;-64
2022/08/26 04:17:25;;;;;;;38.22;32.03;;;;;;;;;;5072064;28;20024;-64
2022/08/26 04:19:53;;;;;;;36.45;32.55;;;;;;;;;;5071962;28;20031;-64
2022/08/26 04:22:19;;;;;;;37.15;32.90;;;;;;;;;;5072780;28;20020;-64
2022/08/26 04:24:45;;;;;;;45.95;37.20;;;;;;;;;;5071642;28;20025;-64
2022/08/26 04:27:12;;;;;;;41.85;36.55;;;;;;;;;;5072848;28;20137;-63
2022/08/26 04:29:40;;;;;;;42.63;38.05;;;;;;;;;;5071594;28;20033;-64
2022/08/26 04:32:07;;;;;;;44.58;38.05;;;;;;;;;;5071001;28;20107;-65
2022/08/26 04:34:33;;;;;;;45.15;40.45;;;;;;;;;;5072580;28;20431;-64
2022/08/26 04:36:59;;;;;;;45.20;40.10;;;;;;;;;;5071039;28;20029;-65
2022/08/26 04:39:26;;;;;;;48.60;42.30;;;;;;;;;;5071883;28;20021;-64
2022/08/26 04:41:53;;;;;;;47.33;42.35;;;;;;;;;;5072282;28;20024;-64
2022/08/26 04:44:20;;;;;;;49.23;43.93;;;;;;;;;;5072740;28;20070;-64
2022/08/26 04:46:46;;;;;;;52.35;46.78;;;;;;;;;;5072392;28;20048;-64
2022/08/26 04:49:12;;;;;;;51.28;45.67;;;;;;;;;;5078557;28;20404;-64
2022/08/26 04:51:39;;;;;;;50.05;44.67;;;;;;;;;;5092409;28;20377;-65
2022/08/26 04:54:05;;;;;;;50.40;45.08;;;;;;;;;;5092089;28;20111;-64
2022/08/26 04:56:33;;;;;;;54.75;48.85;;;;;;;;;;5087964;28;20033;-64
2022/08/26 04:59:00;;;;;;;54.00;47.75;;;;;;;;;;5071139;28;20025;-65
2022/08/26 05:01:26;;;;;;;57.08;50.88;;;;;;;;;;5071707;28;20031;-64
2022/08/26 05:03:53;;;;;;;56.53;49.92;;;;;;;;;;5070085;28;20024;-64
2022/08/26 05:06:19;;;;;;;60.25;53.63;;;;;;;;;;5086173;28;20040;-65
2022/08/26 05:08:46;;;;;;;60.85;54.45;;;;;;;;;;5091815;28;20028;-65
2022/08/26 05:11:12;;;;;;;60.80;54.53;;;;;;;;;;5094712;28;20031;-65
2022/08/26 05:13:38;;;;;;;65.43;57.83;;;;;;;;;;5094676;28;20047;-65
2022/08/26 05:16:05;;;;;;;66.78;59.78;;;;;;;;;;5097191;28;20020;-65
2022/08/26 05:18:32;;;;;;;68.55;61.38;;;;;;;;;;5101241;28;20044;-65
2022/08/26 05:20:59;;;;;;;70.07;62.72;;;;;;;;;;5099522;28;20384;-64
2022/08/26 05:23:25;;;;;;;68.32;61.17;;;;;;;;;;5108533;28;20080;-65
2022/08/26 05:25:53;;;;;;;70.30;62.78;;;;;;;;;;5116066;28;20144;-64
2022/08/26 05:28:19;;;;;;;72.55;65.07;;;;;;;;;;5115717;28;20016;-65
2022/08/26 05:30:45;;;;;;;71.32;63.53;;;;;;;;;;5115652;28;20019;-65
2022/08/26 05:33:11;;;;;;;73.82;66.38;;;;;;;;;;5116029;28;20491;-65
2022/08/26 05:35:38;;;;;;;76.65;68.70;;;;;;;;;;5115763;28;20032;-64
2022/08/26 05:38:06;;;;;;;80.28;72.05;;;;;;;;;;5115514;28;20050;-64
2022/08/26 05:40:51;;;;;;;79.78;71.28;;;;;;;;;;5115493;28;20039;-65
2022/08/26 05:43:17;;;;;;;80.18;71.45;;;;;;;;;;5115646;28;20081;-64
2022/08/26 05:45:48;;;;;;;87.85;72.72;;;;;;;;;;5115629;28;20028;-64
2022/08/26 05:48:15;;;;;;;86.47;77.05;;;;;;;;;;5115306;28;20020;-64
2022/08/26 05:50:43;;;;;;;89.95;76.50;;;;;;;;;;5098344;28;20031;-64
2022/08/26 05:53:10;;;;;;;86.50;76.53;;;;;;;;;;5094905;28;20096;-64
2022/08/26 05:55:41;;;;;;;86.13;74.93;;;;;;;;;;5094791;28;20040;-64
2022/08/26 05:58:07;;;;;;;88.72;72.57;;;;;;;;;;5106758;22;20036;-58
2022/08/26 06:00:33;;;;;;;91.85;75.68;;;;;;;;;;5076343;28;20040;-56
2022/08/26 06:02:59;;;;;;;92.70;74.75;;;;;;;;;;5076167;28;20560;-57
2022/08/26 06:05:25;;;;;;;94.30;76.40;;;;;;;;;;5094543;28;20052;-59
2022/08/26 06:10:42;;;;;;;93.72;78.40;;;;;;;;;;5093694;28;20035;-65
2022/08/26 06:13:09;;;;;;;97.00;78.75;;;;;;;;;;5076024;28;20475;-60
2022/08/26 06:15:38;;;;;;;98.70;81.65;;;;;;;;;;5093702;28;20036;-63
2022/08/26 06:18:04;;;;;;;;;;;;;;;;;;5094417;28;20078;-64
2022/08/26 06:20:31;;;;;;;92.50;79.78;;;;;;;;;;5093881;28;19945;-63
2022/08/26 06:25:41;;;;;;;93.15;79.80;;;;;;;;;;5094284;28;20511;-63
2022/08/26 06:28:08;;;;;;;95.82;75.35;;;;;;;;;;5093202;28;20388;-64
2022/08/26 06:30:39;;;;;;;95.47;76.63;;;;;;;;;;5093689;28;20054;-62
2022/08/26 06:33:05;;;;;;;93.20;75.55;;;;;;;;;;5093825;28;20101;-63
2022/08/26 06:35:35;;;;;;;90.10;74.03;;;;;;;;;;5093612;28;20039;-60
2022/08/26 06:38:01;;;;;;;95.40;77.63;;;;;;;;;;5093195;28;20084;-60
2022/08/26 06:40:28;;;;;;;90.68;74.70;;;;;;;;;;5093094;28;20477;-62
2022/08/26 06:42:54;;;;;;;88.53;72.38;;;;;;;;;;5093408;28;20016;-63
2022/08/26 06:45:20;;;;;;;88.60;71.25;;;;;;;;;;5093338;28;20027;-65
2022/08/26 06:47:46;;;;;;;87.07;73.63;;;;;;;;;;5075085;28;20456;-63
2022/08/26 06:50:12;;;;;;;85.82;70.75;;;;;;;;;;5072804;28;20055;-63
2022/08/26 06:52:40;;;;;;;82.03;72.57;;;;;;;;;;5073185;28;20024;-63
2022/08/26 06:55:07;;;;;;;79.80;69.25;;;;;;;;;;5073402;28;20158;-64
2022/08/26 06:57:35;;;;;;;77.55;66.25;;;;;;;;;;5072946;28;20032;-63
2022/08/26 07:00:03;;;;;;;86.57;69.63;;;;;;;;;;5072840;28;20028;-62
2022/08/26 07:02:29;;;;;;;78.30;67.67;;;;;;;;;;5072998;28;20101;-57
2022/08/26 07:04:55;;;;;;;75.57;67.53;;;;;;;;;;5072896;28;20048;-62
2022/08/26 07:07:21;;;;;;;82.07;66.45;;;;;;;;;;5072726;28;20020;-62
2022/08/26 07:09:47;;;;;;;79.13;66.28;;;;;;;;;;5072646;28;20024;-62
2022/08/26 09:53:26;;;;;;;50.75;44.35;;;;;;;;;;5068861;28;20369;-51
2022/08/26 09:56:10;;;;;;;57.10;46.53;;;;;;;;;;5068808;28;20028;-54
2022/08/26 09:58:37;;;;;;;53.58;44.40;;;;;;;;;;5067442;28;20379;-57
2022/08/26 10:01:05;;;;;;;57.20;45.85;;;;;;;;;;5068551;28;20051;-53
2022/08/26 10:03:33;;;;;;;57.17;45.38;;;;;;;;;;5067560;28;20051;-56
2022/08/26 10:08:37;;;;;;;50.80;44.83;;;;;;;;;;5065899;28;20469;-54
2022/08/26 10:11:14;;;;;;;52.90;45.30;;;;;;;;;;5083512;28;20025;-49
2022/08/26 10:13:43;;;;;;;48.78;43.50;;;;;;;;;;5068069;28;20028;-55
2022/08/26 10:16:20;;;;;;;46.25;41.25;;;;;;;;;;5083473;28;20017;-53
2022/08/26 10:18:49;;;;;;;47.95;42.58;;;;;;;;;;5067459;28;20029;-56
2022/08/26 10:21:20;;;;;;;48.95;40.53;;;;;;;;;;5067951;28;20035;-54
2022/08/26 10:23:48;;;;;;;49.20;41.15;;;;;;;;;;5067613;28;20071;-56
2022/08/26 10:26:14;;;;;;;47.15;41.35;;;;;;;;;;5067482;28;20078;-54
2022/08/26 10:28:56;;;;;;;47.25;42.10;;;;;;;;;;5067157;28;20643;-55
2022/08/26 10:31:25;;;;;;;46.45;39.03;;;;;;;;;;5067334;28;20388;-57
2022/08/26 10:33:52;;;;;;;45.30;40.22;;;;;;;;;;5066137;28;20042;-55
2022/08/26 10:39:07;;;;;;;45.53;39.92;;;;;;;;;;5067114;28;20082;-55
2022/08/26 10:41:37;;;;;;;48.28;41.30;;;;;;;;;;5066926;28;20066;-57
2022/08/26 10:44:05;;;;;;;45.55;38.58;;;;;;;;;;5067243;28;20370;-56
2022/08/26 10:46:40;;;;;;;44.65;37.45;;;;;;;;;;5067159;28;20040;-59
2022/08/26 10:49:08;;;;;;;44.90;38.88;;;;;;;;;;5067202;28;20090;-55
2022/08/26 10:51:37;;;;;;;44.22;39.28;;;;;;;;;;5066503;28;20496;-56
2022/08/26 10:54:17;;;;;;;43.92;37.83;;;;;;;;;;5067350;28;20051;-58
2022/08/26 10:56:43;;;;;;;46.88;38.95;;;;;;;;;;5067109;28;20021;-53
2022/08/26 10:59:09;;;;;;;49.08;38.92;;;;;;;;;;5067304;28;20027;-54
2022/08/26 11:01:42;;;;;;;43.78;36.92;;;;;;;;;;5067239;28;20107;-53
2022/08/26 11:04:14;;;;;;;43.70;37.97;;;;;;;;;;5055873;28;20025;-53
2022/08/26 11:06:40;;;;;;;43.45;35.88;;;;;;;;;;5053733;28;20029;-52
2022/08/26 11:09:07;;;;;;;42.60;37.95;;;;;;;;;;5053506;28;20029;-54
2022/08/26 11:11:39;;;;;;;42.45;36.65;;;;;;;;;;5053114;28;20045;-54
2022/08/26 11:14:08;;;;;;;41.55;36.50;;;;;;;;;;5053404;28;20327;-53
2022/08/26 11:16:33;;;;;;;;;;;;;;;;;;5053853;28;20017;-55
2022/08/26 11:18:59;;;;;;;45.45;37.25;;;;;;;;;;5053288;28;19905;-53
2022/08/26 11:21:44;;;;;;;41.92;36.17;;;;;;;;;;5053978;28;20037;-56
2022/08/26 11:24:30;;;;;;;41.90;36.78;;;;;;;;;;5052601;28;20059;-53
2022/08/26 11:26:56;;;;;;;42.42;35.45;;;;;;;;;;5052194;28;20070;-50
2022/08/26 11:29:41;;;;;;;42.25;34.97;;;;;;;;;;5052656;28;20078;-54
2022/08/26 11:32:22;;;;;;;37.58;33.10;;;;;;;;;;5052948;28;20032;-57
2022/08/26 11:34:58;;;;;;;42.45;34.17;;;;;;;;;;5053251;28;20374;-56
2022/08/26 11:37:29;;;;;;;41.67;34.72;;;;;;;;;;5052576;28;20029;-53
2022/08/26 11:39:55;;;;;;;38.28;31.60;;;;;;;;;;5052750;28;20423;-54
2022/08/26 11:42:21;;;;;;;37.05;31.95;;;;;;;;;;5051555;28;20090;-57
2022/08/26 11:44:48;;;;;;;37.22;30.95;;;;;;;;;;5052706;28;20458;-56
2022/08/26 11:47:16;;;;;;;39.60;32.22;;;;;;;;;;5051423;28;20021;-51
2022/08/26 11:49:42;;;;;;;37.88;31.08;;;;;;;;;;5052846;28;20083;-55
2022/08/26 11:52:08;;;;;;;36.13;29.27;;;;;;;;;;5051215;28;20033;-53
2022/08/26 11:54:34;;;;;;;34.80;30.17;;;;;;;;;;5052583;28;20127;-53
2022/08/26 11:57:00;;;;;;;34.88;26.88;;;;;;;;;;5051014;28;20021;-48
2022/08/26 11:59:32;;;;;;;33.78;28.60;;;;;;;;;;5049730;28;20033;-54
2022/08/26 12:01:59;;;;;;;31.98;26.95;;;;;;;;;;5052659;28;20378;-59
2022/08/26 12:04:25;;;;;;;28.95;25.67;;;;;;;;;;5050906;28;20021;-50
2022/08/26 12:06:51;;;;;;;30.58;25.63;;;;;;;;;;5049366;28;20599;-49
2022/08/26 12:09:22;;;;;;;29.58;25.27;;;;;;;;;;5049966;28;20089;-56
2022/08/26 12:11:48;;;;;;;27.58;24.65;;;;;;;;;;5046249;28;20052;-57
2022/08/26 12:14:23;;;;;;;28.50;24.17;;;;;;;;;;5052017;28;20021;-57
2022/08/26 12:16:49;;;;;;;31.55;23.55;;;;;;;;;;5050072;28;20024;-54
2022/08/26 12:19:21;;;;;;;29.00;24.65;;;;;;;;;;5051132;28;20044;-53
2022/08/26 12:21:48;;;;;;;29.95;25.17;;;;;;;;;;5044446;28;20389;-47
2022/08/26 12:24:17;;;;;;;29.23;24.75;;;;;;;;;;5051075;28;20110;-54
2022/08/26 12:26:43;;;;;;;32.13;26.55;;;;;;;;;;5049285;28;20037;-53
2022/08/26 12:29:13;;;;;;;34.13;25.95;;;;;;;;;;5045382;28;20035;-55
2022/08/26 12:31:43;;;;;;;31.52;26.60;;;;;;;;;;5048825;28;20485;-56
2022/08/26 12:34:11;;;;;;;31.80;25.13;;;;;;;;;;5050010;28;20025;-55
2022/08/26 12:37:03;;;;;;;29.97;24.00;;;;;;;;;;5051969;28;20477;-56
2022/08/26 12:39:34;;;;;;;28.15;22.75;;;;;;;;;;5050409;28;20041;-50
2022/08/26 12:42:23;;;;;;;27.02;22.23;;;;;;;;;;5051872;28;20021;-51
2022/08/26 12:45:03;;;;;;;27.88;23.05;;;;;;;;;;5044609;28;20440;-51
2022/08/26 12:47:34;;;;;;;26.50;22.52;;;;;;;;;;5049230;28;20029;-58
2022/08/26 12:50:06;;;;;;;29.40;22.48;;;;;;;;;;5051699;28;20040;-53
2022/08/26 12:52:34;;;;;;;29.88;22.90;;;;;;;;;;5048271;28;20059;-55
2022/08/26 12:55:03;;;;;;;27.70;22.02;;;;;;;;;;5050678;28;20031;-51
2022/08/26 12:57:31;;;;;;;29.00;22.52;;;;;;;;;;5050196;28;20036;-55
2022/08/26 13:00:18;;;;;;;26.10;22.52;;;;;;;;;;5051897;28;20471;-57
2022/08/26 13:02:44;;;;;;;26.65;20.23;;;;;;;;;;5044788;28;20091;-53
2022/08/26 13:05:19;;;;;;;25.75;21.60;;;;;;;;;;5050296;28;20046;-52
2022/08/26 13:08:05;;;;;;;25.17;20.80;;;;;;;;;;5050308;28;20119;-55
2022/08/26 13:10:35;;;;;;;24.45;19.27;;;;;;;;;;5030230;28;20033;-51
2022/08/26 13:13:01;;;;;;;26.05;20.17;;;;;;;;;;5046558;28;20075;-51
2022/08/26 13:15:27;;;;;;;26.63;19.45;;;;;;;;;;5049590;28;20029;-56
2022/08/26 13:17:53;;;;;;;26.10;19.95;;;;;;;;;;5051167;28;20477;-54
2022/08/26 13:20:19;;;;;;;25.83;20.67;;;;;;;;;;5043648;28;20033;-55
2022/08/26 13:22:45;;;;;;;24.40;18.88;;;;;;;;;;5046485;28;20032;-58
2022/08/26 13:25:11;;;;;;;25.88;19.17;;;;;;;;;;5051439;28;20029;-60
2022/08/26 13:27:37;;;;;;;23.42;18.15;;;;;;;;;;5049457;28;20021;-50
2022/08/26 13:30:04;;;;;;;26.38;23.58;;;;;;;;;;5051477;28;20043;-52
2022/08/26 13:32:30;;;;;;;29.77;22.65;;;;;;;;;;5051686;28;20044;-55
2022/08/26 13:34:57;;;;;;;28.23;22.25;;;;;;;;;;5050673;28;20476;-58
2022/08/26 13:37:25;;;;;;;22.13;16.27;;;;;;;;;;5051089;28;20420;-54
2022/08/26 13:39:52;;;;;;;25.50;17.60;;;;;;;;;;5050423;28;20050;-50
2022/08/26 13:42:19;;;;;;;21.85;15.57;;;;;;;;;;5051147;28;20025;-52
2022/08/26 13:44:48;;;;;;;27.67;16.17;;;;;;;;;;5050819;28;20044;-48
2022/08/26 13:47:14;;;;;;;24.98;16.25;;;;;;;;;;5050811;28;20032;-47
2022/08/26 13:49:42;;;;;;;24.92;16.38;;;;;;;;;;5049786;28;20144;-52
2022/08/26 13:52:08;;;;;;;23.13;15.93;;;;;;;;;;5050990;28;20036;-49
2022/08/26 13:54:34;;;;;;;24.98;15.05;;;;;;;;;;5051134;28;20307;-50
2022/08/26 13:57:01;;;;;;;23.63;15.18;;;;;;;;;;5051118;28;20025;-51
2022/08/26 13:59:27;;;;;;;24.77;16.02;;;;;;;;;;5049408;28;20021;-54
2022/08/26 14:01:53;;;;;;;22.25;14.98;;;;;;;;;;5051106;28;20104;-52
2022/08/26 14:04:19;;;;;;;22.17;15.10;;;;;;;;;;5050874;28;20055;-50
2022/08/26 14:06:45;;;;;;;26.30;15.57;;;;;;;;;;5049426;28;20029;-48
2022/08/26 14:09:11;;;;;;;24.92;14.18;;;;;;;;;;5050097;28;20112;-54
2022/08/26 14:11:37;;;;;;;23.77;14.18;;;;;;;;;;5050792;28;20112;-47
2022/08/26 14:14:03;;;;;;;23.75;15.35;;;;;;;;;;5050978;28;20017;-44
2022/08/26 14:16:32;;;;;;;26.55;15.45;;;;;;;;;;5051730;28;20018;-45
2022/08/26 14:19:01;;;;;;;25.30;14.02;;;;;;;;;;5051284;28;20501;-51
2022/08/26 14:21:31;;;;;;;25.33;14.93;;;;;;;;;;5051145;28;20033;-45
2022/08/26 14:23:57;;;;;;;23.27;14.90;;;;;;;;;;5051251;28;20031;-49
2022/08/26 14:26:23;;;;;;;24.10;15.18;;;;;;;;;;5050666;28;20119;-50
2022/08/26 14:28:49;;;;;;;22.60;14.30;;;;;;;;;;5049471;28;20025;-53
2022/08/26 14:31:16;;;;;;;21.92;13.75;;;;;;;;;;5050928;28;20116;-53
2022/08/26 14:33:42;;;;;;;21.05;14.48;;;;;;;;;;5051316;28;20100;-52
2022/08/26 14:36:27;;;;;;;24.05;14.73;;;;;;;;;;5050267;28;20478;-50
2022/08/26 14:38:53;;;;;;;21.90;13.35;;;;;;;;;;5052427;28;20083;-49
2022/08/26 14:41:19;;;;;;;19.63;12.85;;;;;;;;;;5053630;28;20060;-49
2022/08/26 14:43:50;;;;;;;22.75;13.57;;;;;;;;;;5054019;28;20017;-53
2022/08/26 14:46:16;;;;;;;21.50;13.95;;;;;;;;;;5052755;28;20658;-47
2022/08/26 14:48:42;;;;;;;21.45;14.00;;;;;;;;;;5053050;28;20403;-50
2022/08/26 14:51:08;;;;;;;24.30;13.23;;;;;;;;;;5054325;28;20385;-52
2022/08/26 14:56:19;;;;;;;22.98;14.20;;;;;;;;;;5054303;28;20096;-46
2022/08/26 14:58:45;;;;;;;20.92;13.23;;;;;;;;;;5054205;28;20017;-51
2022/08/26 15:01:11;;;;;;;23.00;14.35;;;;;;;;;;5054347;28;20043;-50
2022/08/26 15:03:38;;;;;;;26.15;14.55;;;;;;;;;;5052874;28;20108;-52
2022/08/26 15:06:04;;;;;;;21.55;14.13;;;;;;;;;;5054039;28;20056;-45
2022/08/26 15:08:35;;;;;;;24.55;14.23;;;;;;;;;;5053961;28;20025;-52
2022/08/26 15:11:01;;;;;;;21.63;15.63;;;;;;;;;;5054084;28;20025;-50
2022/08/26 15:13:27;;;;;;;21.88;14.15;;;;;;;;;;5054127;28;20033;-53
2022/08/26 15:15:53;;;;;;;25.90;15.00;;;;;;;;;;5053852;28;20101;-47
2022/08/26 15:18:19;;;;;;;20.45;15.20;;;;;;;;;;5053110;28;20036;-51
2022/08/26 15:20:45;;;;;;;22.67;15.30;;;;;;;;;;5053692;28;20033;-54
2022/08/26 15:23:11;;;;;;;23.92;14.52;;;;;;;;;;5053567;28;20033;-52
2022/08/26 15:25:37;;;;;;;23.65;14.52;;;;;;;;;;5047668;28;20037;-52
2022/08/26 15:28:05;;;;;;;23.13;14.07;;;;;;;;;;5041981;28;20030;-49
2022/08/26 15:30:32;;;;;;;26.58;14.23;;;;;;;;;;5053777;28;20033;-47
2022/08/26 15:32:58;;;;;;;22.80;14.48;;;;;;;;;;5053755;28;20077;-51
2022/08/26 15:35:24;;;;;;;21.08;14.30;;;;;;;;;;5051082;28;20503;-50
2022/08/26 15:37:50;;;;;;;22.13;14.15;;;;;;;;;;5053387;28;20503;-49
2022/08/26 15:40:17;;;;;;;24.27;13.55;;;;;;;;;;5053386;28;20013;-46
2022/08/26 15:42:43;;;;;;;21.00;13.98;;;;;;;;;;5052955;28;20033;-51
2022/08/26 15:45:10;;;;;;;21.35;13.43;;;;;;;;;;5053705;28;20021;-48
2022/08/26 15:47:36;;;;;;;22.50;13.95;;;;;;;;;;5052132;28;20032;-46
2022/08/26 15:50:02;;;;;;;23.15;13.63;;;;;;;;;;5049189;28;20112;-53
2022/08/26 15:52:28;;;;;;;24.20;13.30;;;;;;;;;;5046288;28;20030;-52
2022/08/26 15:54:54;;;;;;;25.45;14.63;;;;;;;;;;5051201;28;20028;-50
2022/08/26 15:57:20;;;;;;;21.83;13.93;;;;;;;;;;5051934;28;20071;-50
2022/08/26 15:59:46;;;;;;;20.48;13.13;;;;;;;;;;5052478;28;20066;-51
2022/08/26 16:02:13;;;;;;;26.00;13.38;;;;;;;;;;5050012;28;20025;-46
2022/08/26 16:04:39;;;;;;;21.33;11.57;;;;;;;;;;5045789;28;20021;-49
2022/08/26 16:07:05;;;;;;;23.25;11.85;;;;;;;;;;5053780;28;20401;-54
2022/08/26 16:09:31;;;;;;;20.30;11.75;;;;;;;;;;5051232;28;20487;-50
2022/08/26 16:11:57;;;;;;;22.00;12.27;;;;;;;;;;5052501;28;20033;-47
2022/08/26 16:14:23;;;;;;;23.48;11.85;;;;;;;;;;5052988;28;20076;-44
2022/08/26 16:16:50;;;;;;;19.58;11.70;;;;;;;;;;5052883;28;20043;-52
2022/08/26 16:19:16;;;;;;;20.17;12.05;;;;;;;;;;5051513;28;20032;-51
2022/08/26 16:21:43;;;;;;;25.88;12.02;;;;;;;;;;5052703;28;20055;-46
2022/08/26 16:24:09;;;;;;;23.23;12.18;;;;;;;;;;5051463;28;20029;-48
2022/08/26 16:26:36;;;;;;;22.02;12.30;;;;;;;;;;5052247;28;20025;-47
2022/08/26 16:29:05;;;;;;;22.00;12.05;;;;;;;;;;5051455;28;20462;-53
2022/08/26 16:31:31;;;;;;;19.00;11.93;;;;;;;;;;5050308;28;20386;-53
2022/08/26 16:33:57;;;;;;;21.27;11.88;;;;;;;;;;5052441;28;20021;-51
2022/08/26 16:36:23;;;;;;;23.65;11.77;;;;;;;;;;5051216;28;20025;-54
2022/08/26 16:38:52;;;;;;;20.98;11.63;;;;;;;;;;5051032;28;20124;-50
2022/08/26 16:41:18;;;;;;;20.88;12.00;;;;;;;;;;5051330;28;20024;-50
2022/08/26 16:43:44;;;;;;;23.00;12.43;;;;;;;;;;5050830;28;20025;-49
2022/08/26 16:46:12;;;;;;;19.77;11.10;;;;;;;;;;5050560;28;20032;-51
2022/08/26 16:48:39;;;;;;;23.38;12.30;;;;;;;;;;5051497;28;20021;-47
2022/08/26 16:51:09;;;;;;;24.27;11.77;;;;;;;;;;5052256;28;20036;-51
2022/08/26 16:53:36;;;;;;;22.45;12.25;;;;;;;;;;5052239;28;20028;-52
2022/08/26 16:56:03;;;;;;;20.50;11.70;;;;;;;;;;5052094;28;20043;-50
2022/08/26 16:58:29;;;;;;;22.02;12.40;;;;;;;;;;5049637;28;20159;-51
2022/08/26 17:00:56;;;;;;;19.13;11.05;;;;;;;;;;5051252;28;20037;-57
2022/08/26 17:03:22;;;;;;;19.83;11.13;;;;;;;;;;5052236;28;20108;-49
2022/08/26 17:05:48;;;;;;;20.95;11.45;;;;;;;;;;5051847;28;20059;-53
2022/08/26 17:08:14;;;;;;;20.02;11.63;;;;;;;;;;5040459;28;20030;-51
2022/08/26 17:10:40;;;;;;;20.73;10.98;;;;;;;;;;5046145;28;20061;-50
2022/08/26 17:13:06;;;;;;;22.70;12.13;;;;;;;;;;5047467;28;20045;-47
2022/08/26 17:15:32;;;;;;;22.75;11.93;;;;;;;;;;5052027;28;20566;-48